Ride Results

Wingello Forest Ride (25-05-2013)
Ride distance: 80.0 km

Outcomes - Wingello Forest Ride (25-05-2013)
Division No. of Entries Retired / DNE Completed Withdrawn Ineligible V/O Percentage Completed
HW 21 - 17 - - 4 80.95%
MW 35 - 31 2 - 2 88.57%
LW 24 - 19 - - 5 79.17%
JN 10 - 9 - - 1 90.00%
Totals 90 - 76 2 - 12 84.44%
Results - Wingello Forest Ride (25-05-2013)
No. Rider Horse Place Time Leg Speeds Total
Km/Hr
H/R bpm
Heavyweight
43 Heidi Wade Yinbilliko Jackson 1 4:59:00 16.3, 15.7 16.05 28, 40, 42 (Avg:41)
60 Mark Lindsay Kintamani Jaffah 2 5:36:00 16.2, 12.7 14.29 30, 34, 45 (Avg:39)
46 Sarah Kelly Littlebanks Storm 3 5:41:00 14.4, 13.7 14.08 34, 40, 49 (Avg:44)
19 Allie Roberts Jaydon Count 4 6:06:00 10.8, 16.5 13.11 32, 38, 48 (Avg:43)
51 Stacey Wood Yukon Park Shiloh 5 6:09:00 12.8, 13.1 13.01 41, 42, 47 (Avg:44)
104 Donna Tidswell Oakleigh Park Bailey 6 6:10:00 13.8, 12.1 12.97 32, 48, 46 (Avg:47)
29 Sue Warren Razorback Flash 7 6:18:00 12.9, 12.4 12.70 36, 49, 60 (Avg:54)
77 Alan Mackinder Jezabelle Sweet Dreams 8 6:27:00 12.9, 11.8 12.40 33, 38, 47 (Avg:42)
87 John Dawson Duce 9 6:38:00 12.7, 11.4 12.06 30, 39, 50 (Avg:44)
79 Peter Norman Paris 10 6:39:00 13.1, 11.0 12.03 31, 42, 45 (Avg:43)
68 Patrick Leary Raz Amber 11 6:40:00 13.0, 11.1 12.00 37, 42, 47 (Avg:44)
53 Craig Wilson Webbs Creek Cattle Baron 12 6:46:00 12.2, 11.4 11.82 37, 45, 45 (Avg:45)
61 Con Bouzianis Conderosa Ozzie 13 6:55:00 12.1, 11.0 11.57 48, 40, 45 (Avg:42)
49 Anthony Parker Black Heart Recharge 14 6:59:00 12.3, 10.7 11.46 34, 42, 59 (Avg:50)
110 Stuart Lymbery Aloha Typic 15 7:15:00 11.7, 10.4 11.03 34, 34, 37 (Avg:35)
32 Louise Mackey Jum-Jum Nah-Zara 16 7:22:00 11.4, 10.3 10.86 39, 48, 60 (Avg:54)
26 Rhonda Herries Chiko 17 8:06:00 10.8, 9.0 9.88 31, 35, 49 (Avg:42)
85 Trent Haymen DBA C Zar Heart Rate L2 0:00:00 10.1, 10.1 - 38, 42, 72 (Avg:57)
128 Craig Hugall Berwick Blue Pride Lame L2 0:00:00 13.3, 13.1 - 39, 43, 44 (Avg:43)
121 Ray Spence Dahman Nile Star Heart Rate L2 0:00:00 18.6, 17.3 - 22, 34, 68 (Avg:51)
31 Alan Lindsay Khool Lame L1 0:00:00 13.3 - 42, 50 (Avg:50)
Middleweight
129 Anika Basiak Flametree Samirah 1 4:27:00 18.6, 17.3 17.98 32, 41, 48 (Avg:44)
106 Amanda Kettlewell Oso Lorikeet 2 4:27:01 18.6, 17.3 17.98 36, 50, 45 (Avg:47)
16 Ian Curtis Blake's Heaven Summer Wind 3 4:37:00 18.6, 16.2 17.33 28, 50, 54 (Avg:52)
126V Wendy Riha Castlebar Jumeirah 4 5:08:00 14.2, 17.2 15.58 27, 37, 39 (Avg:38)
122 Jeremy Banwell Blake's Heaven Caruso 5 6:01:00 15.2, 11.7 13.30 28, 39, 47 (Avg:43)
58 Jennifer Rogers Tristram Hero 5 6:01:00 16.7, 11.0 13.30 30, 40, 55 (Avg:47)
24 Tom Bouzianis Conderosa Sara 7 6:07:00 20.3, 9.6 13.08 30, 38, 42 (Avg:40)
92 Tracy John Berwick Red Fire 7 6:07:00 13.3, 12.8 13.08 38, 45, 59 (Avg:52)
109 Peter John Blue Dawn Bea 7 6:07:00 13.3, 12.8 13.08 38, 34, 56 (Avg:45)
112 Kevin Guihot Windradyne Ferrero 10 6:10:00 13.8, 12.1 12.97 29, 37, 41 (Avg:39)
52 Carol Major Major Luke 11 6:18:00 12.9, 12.4 12.70 32, 39, 52 (Avg:45)
64 Talea Hasko-Stewart Blake's Heaven Bombora 12 6:20:00 11.3, 14.2 12.63 30, 39, 40 (Avg:39)
59 Gertraud Norton Franshar Park Khayaal 13 6:22:00 12.9, 12.2 12.57 35, 42, 47 (Avg:44)
119 Andrew Mackinder Sundown Park Cariad 14 6:27:00 12.9, 11.8 12.40 32, 39, 42 (Avg:40)
102 Rachel Beatson Aloha Dancing With The Stars 15 6:37:00 12.2, 11.9 12.09 34, 46, 39 (Avg:42)
99 April Newman Jon De Le Vismad 16 6:38:00 12.7, 11.4 12.06 29, 40, 43 (Avg:41)
120 Jennifer Gilbertson Windaroo Devina Glamour 17 6:46:00 12.2, 11.4 11.82 35, 34, 46 (Avg:40)
94 Chris Cheney War Fare 18 7:00:00 11.5, 11.3 11.43 30, 40, 41 (Avg:40)
95 Anna Nilbett Sienna Warsaw 18 7:00:00 11.5, 11.3 11.43 32, 41, 53 (Avg:47)
33 Marjorie Trudgett Trazir Amir Rhazzikh 18 7:00:00 13.3, 9.9 11.43 32, 42, 44 (Avg:43)
74 Simon Bain Akifa Farras Ice 21 7:07:00 11.9, 10.6 11.24 42, 48, 43 (Avg:45)
91 Ian Brown Coolaroo Cohnah 21 7:07:00 10.2, 12.4 11.24 33, 39, 59 (Avg:49)
67 Anne Lymbery Garonne Park Phoenix 23 7:15:00 11.7, 10.4 11.03 36, 39, 49 (Avg:44)
70 Michael Cummins Winter Hill Alice 24 7:17:00 10.8, 11.1 10.98 35, 42, 44 (Avg:43)
127 Alamdar Dastani Shea'tarn Shakina 25 7:22:00 11.4, 10.3 10.86 28, 35, 44 (Avg:39)
126A Davd Nik Sabaudin Nik Castlebar Perla 25 7:22:00 11.7, 10.0 10.86 31, 38, 42 (Avg:40)
125 Mohd Rahim Castlebar Diesel 25 7:22:00 11.7, 10.1 10.86 30, 36, 47 (Avg:41)
17 Catherine West Lofty 28 7:26:00 11.4, 10.1 10.76 31, 44, 53 (Avg:48)
96 Bruce Carter Dasharm Zayesha 29 7:30:00 11.4, 9.9 10.67 28, 44, 58 (Avg:51)
114 Monica Majerowski Valinor Park Sakim 30 8:03:00 10.8, 9.1 9.94 40, 40, 45 (Avg:42)
123 Suzie Raiti Balara Kymono 31 8:07:00 9.7, 9.9 9.86 30, 39, 45 (Avg:42)
75 Fiona Coddington Burren-Dah Indiana Heart Rate L2 0:00:00 10.1, 10.2 - 40, 49, 66 (Avg:57)
98 Amanda Overall Leechdale Silver Shimmah Lame L2 0:00:00 11.5, 11.1 - 34, 47, 57 (Avg:52)
93 Jeff Adams Jazzpers Brush Withdrawn L1 0:00:00 - - 30, 45 (Avg:45)
66 Ben Hudson Oso Bandit Withdrawn P/R 0:00:00 - - 39
Lightweight
82 Lauren Howson Candynae 1 4:27:02 18.6, 17.3 17.98 36, 51, 53 (Avg:52)
22 Fia Hasko-Stewart Wantley Kaliph 2 4:31:00 18.6, 16.9 17.71 32, 43, 42 (Avg:42)
1 Vetea Facchini Trigger 3 4:59:00 16.3, 15.7 16.05 28, 36, 41 (Avg:38)
118 Robin Young Razorback Kadance 4 5:08:00 16.7, 14.5 15.58 27, 50, 46 (Avg:48)
111 Jacque Thoms Blake's Heaven Harissa 5 5:13:00 16.9, 14.0 15.34 33, 42, 49 (Avg:45)
105 Elaine Kirby Excessabelle 6 5:36:00 16.2, 12.7 14.29 29, 39, 54 (Avg:46)
78 Shelly Ison Aloha Fabian 7 5:46:00 13.1, 14.6 13.87 33, 34, 44 (Avg:39)
62 Robin Gossip Forest Dale Superstition 8 6:25:00 12.8, 12.1 12.47 30, 43, 59 (Avg:51)
71 Emma Broome Shakla's Sudden Impact 9 6:27:00 12.9, 11.8 12.40 34, 39, 45 (Avg:42)
38 Samar Al-Saleh Conderosa Arassim 10 6:39:00 12.1, 11.8 12.03 37, 41, 48 (Avg:44)
72 Alison Pellow Billy Blacksmith 11 6:40:00 13.0, 11.1 12.00 33, 40, 55 (Avg:47)
107 Narelle Bush Rowallan Seek 12 7:01:00 11.7, 11.1 11.40 29, 41, 53 (Avg:47)
36 Chloe Paton Asiya Contessa 12 7:01:00 11.7, 11.1 11.40 28, 36, 52 (Avg:44)
80 Sally Fenner Sierra Lodge Artic Whispers 14 7:04:00 11.5, 11.1 11.32 32, 42, 46 (Avg:44)
97 Irene Adams Shane D Survivor 15 7:05:00 9.5, 13.7 11.29 39, 45, 57 (Avg:51)
14 Kali Curtis Blake's Heaven Carousel 16 7:28:00 11.3, 10.1 10.71 36, 47, 48 (Avg:47)
90 Sheree Carter Elijah 17 7:30:00 11.4, 9.9 10.67 32, 37, 49 (Avg:43)
124 Vicki Mathew Cearadale Hanaani 18 7:49:00 10.2, 10.2 10.23 37, 47, 56 (Avg:51)
108 Leeanne Hestelow Burren-Dah Bumble Bee 19 7:51:00 10.1, 10.2 10.19 38, 43, 51 (Avg:47)
73 Cherry Cummins Aloha Vision Lame L2 0:00:00 10.8, 12.8 - 30, 35, 47 (Avg:41)
65 Marion Grove Wickwood Domanic Lame L2 0:00:00 13.3, 12.2 - 35, 36, 45 (Avg:40)
86 Wendy Jesson Star Jasmine Heart Rate L2 0:00:00 12.9, 10.9 - 35, 50, 74 (Avg:62)
44 Barbara Kurcz Conderosa Pegasus Lame L2 0:00:00 12.1, 10.4 - 34, 46, 47 (Avg:46)
55 Bridie Lewis Wakado Sharkhan Heart Rate L2 0:00:00 13.7, 10.6 - 28, 45, 79 (Avg:62)
Junior
25 Georgia Curry Macquarie Park Shafeeq 1 4:31:00 17.6, 17.7 17.71 40, 47, 50 (Avg:48)
21 Shantel Nagle Windradyne Ballerina 1 4:31:00 16.7, 18.7 17.71 28, 34, 44 (Avg:39)
47 Tayla Warren Warren Park O.B. One 3 5:04:00 19.5, 13.2 15.79 38, 45, 50 (Avg:47)
9 Tahnaya Mercieca Malleegrove Qaarma 4 5:41:00 14.4, 13.7 14.08 35, 39, 45 (Avg:42)
83 Stacey Clarke Patria Sanai 5 6:37:00 12.2, 11.9 12.09 33, 40, 49 (Avg:44)
57 Victoria Bice The Byzantine Diamonds 6 6:46:00 12.2, 11.4 11.82 37, 40, 49 (Avg:44)
27 Olivia De Gruchy Wickwood Keera 7 7:28:00 11.3, 10.1 10.71 40, 47, 58 (Avg:52)
84 Cybele Coddington Wanstead Abracadabra 8 7:49:00 9.9, 10.5 10.23 34, 38, 46 (Avg:42)
113 Aaron Dowling Wanstead Travelling Soldier 8 7:49:00 9.9, 10.5 10.23 33, 41, 41 (Avg:41)
225 Harrison Berg Castlebar Duke Heart Rate L2 0:00:00 14.2, 15.8 - 29, 50, 64 (Avg:57)